createdAt,value
2019-03-19T00:01:08.338Z,7.63
2019-03-19T00:03:39.253Z,7.03
2019-03-19T00:06:10.048Z,10.77
2019-03-19T00:08:40.657Z,9.43
2019-03-19T00:11:11.352Z,8.07
2019-03-19T00:13:42.711Z,10.23
2019-03-19T00:16:13.502Z,8.73
2019-03-19T00:18:44.155Z,8.50
2019-03-19T00:21:15.032Z,8.13
2019-03-19T00:23:45.706Z,7.27
2019-03-19T00:26:16.375Z,8.57
2019-03-19T00:28:47.056Z,7.10
2019-03-19T00:31:17.713Z,10.60
2019-03-19T00:33:48.359Z,7.50
2019-03-19T00:36:19.178Z,9.80
2019-03-19T00:38:49.843Z,11.63
2019-03-19T00:41:20.423Z,12.50
2019-03-19T00:43:51.273Z,11.93
2019-03-19T00:46:21.901Z,9.53
2019-03-19T00:48:52.802Z,9.53
2019-03-19T00:51:23.514Z,12.13
2019-03-19T00:53:54.040Z,9.73
2019-03-19T00:56:24.602Z,10.50
2019-03-19T00:58:55.189Z,10.77
2019-03-19T01:01:25.802Z,8.53
2019-03-19T01:03:56.960Z,10.17
2019-03-19T01:06:27.681Z,14.50
2019-03-19T01:08:58.399Z,13.63
2019-03-19T01:11:29.039Z,10.03
2019-03-19T01:13:59.707Z,9.43
2019-03-19T01:16:30.460Z,10.37
2019-03-19T01:19:01.179Z,11.87
2019-03-19T01:21:31.973Z,11.73
2019-03-19T01:24:02.676Z,13.97
2019-03-19T01:26:33.335Z,12.93
2019-03-19T01:29:03.983Z,12.87
2019-03-19T01:31:34.572Z,12.47
2019-03-19T01:34:05.227Z,13.00
2019-03-19T01:36:36.192Z,13.00
2019-03-19T01:39:08.444Z,17.93
2019-03-19T01:41:39.134Z,19.33
2019-03-19T01:44:10.849Z,18.57
2019-03-19T01:46:41.527Z,18.23
2019-03-19T01:49:12.292Z,17.60
2019-03-19T01:51:42.894Z,19.87
2019-03-19T01:54:13.904Z,18.97
2019-03-19T01:56:45.597Z,21.50
2019-03-19T01:59:16.244Z,16.77
2019-03-19T02:01:46.955Z,17.60
2019-03-19T02:04:17.859Z,22.50
2019-03-19T02:06:48.586Z,14.77
2019-03-19T02:09:19.289Z,17.43
2019-03-19T02:11:50.333Z,16.23
2019-03-19T02:14:21.034Z,20.77
2019-03-19T02:16:51.936Z,13.83
2019-03-19T02:19:22.495Z,18.67
2019-03-19T02:21:54.160Z,17.00
2019-03-19T02:24:24.837Z,16.43
2019-03-19T02:26:55.517Z,20.40
2019-03-19T02:29:26.373Z,14.60
2019-03-19T02:31:57.128Z,26.50
2019-03-19T02:34:27.885Z,15.93
2019-03-19T02:36:58.532Z,19.63
2019-03-19T02:39:29.282Z,15.30
2019-03-19T02:42:00.592Z,19.00
2019-03-19T02:44:31.205Z,18.33
2019-03-19T02:47:01.850Z,17.83
2019-03-19T02:49:32.560Z,18.30
2019-03-19T02:52:03.219Z,17.13
2019-03-19T02:54:33.958Z,14.90
2019-03-19T02:57:04.699Z,14.77
2019-03-19T02:59:35.427Z,19.37
2019-03-19T03:02:06.228Z,16.37
2019-03-19T03:04:36.763Z,20.73
2019-03-19T03:07:07.486Z,20.93
2019-03-19T03:09:38.223Z,18.37
2019-03-19T03:12:09.309Z,18.97
2019-03-19T03:14:42.022Z,20.47
2019-03-19T03:17:12.716Z,20.50
2019-03-19T03:19:44.538Z,18.63
2019-03-19T03:22:15.610Z,22.70
2019-03-19T03:24:46.466Z,17.07
2019-03-19T03:27:17.236Z,18.67
2019-03-19T03:29:49.081Z,21.57
2019-03-19T03:32:20.021Z,18.67
2019-03-19T03:34:51.023Z,20.90
2019-03-19T03:37:21.886Z,19.60
2019-03-19T03:39:52.595Z,17.33
2019-03-19T03:42:23.328Z,19.47
2019-03-19T03:44:54.123Z,15.97
2019-03-19T03:47:24.806Z,15.70
2019-03-19T03:49:55.461Z,15.30
2019-03-19T03:52:26.119Z,16.23
2019-03-19T03:54:57.051Z,22.47
2019-03-19T03:57:27.607Z,14.47
2019-03-19T03:59:58.339Z,19.73
2019-03-19T04:02:29.951Z,14.97
2019-03-19T04:05:00.709Z,22.47
2019-03-19T04:07:31.496Z,17.83
2019-03-19T04:10:02.227Z,22.23
2019-03-19T04:12:33.267Z,21.30
2019-03-19T04:15:04.442Z,18.20
2019-03-19T04:17:35.001Z,16.67
2019-03-19T04:20:06.695Z,20.73
2019-03-19T04:22:37.415Z,15.10
2019-03-19T04:25:08.310Z,16.30
2019-03-19T04:27:40.579Z,17.47
2019-03-19T04:30:12.219Z,16.50
2019-03-19T04:32:42.985Z,18.50
2019-03-19T04:35:13.731Z,21.97
2019-03-19T04:37:44.504Z,16.27
2019-03-19T04:40:15.401Z,27.57
2019-03-19T04:42:46.367Z,19.40
2019-03-19T04:45:17.257Z,17.17
2019-03-19T04:47:47.929Z,17.37
2019-03-19T04:50:19.509Z,20.80
2019-03-19T04:52:50.223Z,21.00
2019-03-19T04:55:20.968Z,17.17
2019-03-19T04:57:51.667Z,19.13
2019-03-19T05:00:22.481Z,23.30
2019-03-19T05:02:53.120Z,18.37
2019-03-19T05:05:23.694Z,20.77
2019-03-19T05:07:54.532Z,21.33
2019-03-19T05:10:25.262Z,19.03
2019-03-19T05:12:56.211Z,20.63
2019-03-19T05:15:27.292Z,18.27
2019-03-19T05:17:58.210Z,17.10
2019-03-19T05:20:28.838Z,21.87
2019-03-19T05:22:59.604Z,20.67
2019-03-19T05:25:30.640Z,19.60
2019-03-19T05:28:01.374Z,20.77
2019-03-19T05:30:32.165Z,23.30
2019-03-19T05:33:02.982Z,20.33
2019-03-19T05:35:33.689Z,17.70
2019-03-19T05:38:05.408Z,19.87
2019-03-19T05:40:36.833Z,16.90
2019-03-19T05:43:07.691Z,20.53
2019-03-19T05:45:38.549Z,17.47
2019-03-19T05:48:09.223Z,22.47
2019-03-19T05:50:39.932Z,19.00
2019-03-19T05:53:10.658Z,17.20
2019-03-19T05:55:41.391Z,20.23
2019-03-19T05:58:12.322Z,21.20
2019-03-19T06:00:43.330Z,19.83
2019-03-19T06:03:14.079Z,24.30
2019-03-19T06:05:44.925Z,22.77
2019-03-19T06:08:16.603Z,24.60
2019-03-19T06:10:47.410Z,24.43
2019-03-19T06:13:18.398Z,20.03
2019-03-19T06:15:49.094Z,21.40
2019-03-19T06:18:19.681Z,25.00
2019-03-19T06:20:50.246Z,20.23
2019-03-19T06:23:21.166Z,36.63
2019-03-19T06:25:52.163Z,19.37
2019-03-19T06:28:22.862Z,18.23
2019-03-19T06:30:53.608Z,18.93
2019-03-19T06:33:24.264Z,17.70
2019-03-19T06:35:55.239Z,13.40
2019-03-19T06:38:26.338Z,18.73
2019-03-19T06:40:57.531Z,24.23
2019-03-19T06:43:29.802Z,18.27
2019-03-19T06:46:00.822Z,18.47
2019-03-19T06:48:31.745Z,16.80
2019-03-19T06:51:02.658Z,23.77
2019-03-19T06:53:33.865Z,19.57
2019-03-19T06:56:05.001Z,18.73
2019-03-19T06:58:35.809Z,18.87
2019-03-19T07:01:06.675Z,18.80
2019-03-19T07:03:38.299Z,18.80
2019-03-19T07:06:09.131Z,14.67
2019-03-19T07:08:39.911Z,18.03
2019-03-19T07:11:10.846Z,21.47
2019-03-19T07:13:41.536Z,19.80
2019-03-19T07:16:12.160Z,15.57
2019-03-19T07:18:42.822Z,18.20
2019-03-19T07:21:13.654Z,13.27
2019-03-19T07:23:44.365Z,18.27
2019-03-19T07:26:15.161Z,14.37
2019-03-19T07:28:45.744Z,19.93
2019-03-19T07:31:17.005Z,14.73
2019-03-19T07:33:47.774Z,15.68
2019-03-19T07:36:18.455Z,15.55
2019-03-19T07:38:49.049Z,18.40
2019-03-19T07:41:19.596Z,17.82
2019-03-19T07:43:50.187Z,16.48
2019-03-19T07:46:20.863Z,17.12
2019-03-19T07:48:51.546Z,11.43
2019-03-19T07:51:22.160Z,13.08
2019-03-19T07:53:52.886Z,14.85
2019-03-19T07:56:23.524Z,14.23
2019-03-19T07:58:54.655Z,12.73
2019-03-19T08:01:25.718Z,20.08
2019-03-19T08:03:56.538Z,14.23
2019-03-19T08:06:27.321Z,15.18
2019-03-19T08:08:58.026Z,11.73
2019-03-19T08:11:28.575Z,10.38
2019-03-19T08:14:01.036Z,13.22
2019-03-19T08:16:31.939Z,9.33
2019-03-19T08:19:02.548Z,11.93
2019-03-19T08:21:34.794Z,10.05
2019-03-19T08:24:05.582Z,9.83
2019-03-19T08:26:36.522Z,17.52
2019-03-19T08:29:07.201Z,6.83
2019-03-19T08:31:39.299Z,12.70
2019-03-19T08:34:10.803Z,15.95
2019-03-19T08:36:44.477Z,11.38
2019-03-19T08:39:15.467Z,10.00
2019-03-19T08:41:46.638Z,12.65
2019-03-19T08:44:27.261Z,16.00
2019-03-19T08:46:49.802Z,10.40
2019-03-19T08:49:22.272Z,13.13
2019-03-19T08:51:56.509Z,14.87
2019-03-19T08:54:27.358Z,20.60
2019-03-19T08:57:01.422Z,9.95
2019-03-19T08:59:32.251Z,16.52
2019-03-19T09:02:03.618Z,14.73
2019-03-19T09:04:34.576Z,14.15
2019-03-19T09:07:05.399Z,11.95
2019-03-19T09:09:36.199Z,10.80
2019-03-19T09:12:07.446Z,13.40
2019-03-19T09:14:38.146Z,12.75
2019-03-19T09:17:09.254Z,11.83
2019-03-19T09:19:39.995Z,6.00
2019-03-19T09:22:10.638Z,12.15
2019-03-19T09:24:41.307Z,11.50
2019-03-19T09:27:12.321Z,14.18
2019-03-19T09:29:43.097Z,12.75
2019-03-19T09:32:14.222Z,20.02
2019-03-19T09:34:45.079Z,25.48
2019-03-19T09:37:15.757Z,8.53
2019-03-19T09:39:46.703Z,12.13
2019-03-19T09:42:17.434Z,7.28
2019-03-19T09:44:58.000Z,11.57
2019-03-19T09:47:20.551Z,11.08
2019-03-19T09:49:51.300Z,10.88
2019-03-19T09:52:21.994Z,17.77
2019-03-19T09:54:52.727Z,7.72
2019-03-19T09:57:23.425Z,11.88
2019-03-19T09:59:54.399Z,10.05
2019-03-19T10:02:25.021Z,14.35
2019-03-19T10:04:55.971Z,8.43
2019-03-19T10:07:26.579Z,7.42
2019-03-19T10:09:57.249Z,11.20
2019-03-19T10:12:28.433Z,9.10
2019-03-19T10:14:59.158Z,5.45
2019-03-19T10:17:29.853Z,20.40
2019-03-19T10:20:00.575Z,8.80
2019-03-19T10:22:31.171Z,8.88
2019-03-19T10:25:02.008Z,4.83
2019-03-19T10:27:34.007Z,4.08
2019-03-19T10:30:08.381Z,10.13
2019-03-19T10:32:38.943Z,9.15
2019-03-19T10:35:09.755Z,3.42
2019-03-19T10:37:40.412Z,4.03
2019-03-19T10:40:12.251Z,4.47
2019-03-19T10:42:42.909Z,13.03
2019-03-19T10:45:13.632Z,6.85
2019-03-19T10:47:44.508Z,6.25
2019-03-19T10:50:19.290Z,8.53
2019-03-19T10:52:50.912Z,8.13
2019-03-19T10:55:38.315Z,3.95
2019-03-19T10:58:11.182Z,6.65
2019-03-19T11:00:41.360Z,6.20
2019-03-19T11:03:12.038Z,8.68
2019-03-19T11:05:42.662Z,2.40
2019-03-19T11:08:13.398Z,7.90
2019-03-19T11:10:44.059Z,9.60
2019-03-19T11:13:14.747Z,12.00
2019-03-19T11:15:45.370Z,8.83
2019-03-19T11:18:15.983Z,6.53
2019-03-19T11:20:46.891Z,8.60
2019-03-19T11:23:17.897Z,6.70
2019-03-19T11:25:54.365Z,9.15
2019-03-19T11:28:20.989Z,6.70
2019-03-19T11:30:51.558Z,3.77
2019-03-19T11:33:22.227Z,6.28
2019-03-19T11:35:52.871Z,8.90
2019-03-19T11:38:24.890Z,9.63
2019-03-19T11:40:55.610Z,11.90
2019-03-19T11:43:26.306Z,12.45
2019-03-19T11:45:56.914Z,4.03
2019-03-19T11:48:27.910Z,7.65
2019-03-19T11:50:58.516Z,5.47
2019-03-19T11:53:29.158Z,5.45
2019-03-19T11:55:59.817Z,3.02
2019-03-19T11:58:30.808Z,9.80
2019-03-19T12:01:01.937Z,6.50
2019-03-19T12:03:32.683Z,9.90
2019-03-19T12:06:03.425Z,9.13
2019-03-19T12:08:34.126Z,7.97
2019-03-19T12:11:04.800Z,2.77
2019-03-19T12:13:35.527Z,4.77
2019-03-19T12:16:06.220Z,4.35
2019-03-19T12:18:36.802Z,7.05
2019-03-19T12:21:07.468Z,6.97
2019-03-19T12:23:38.076Z,6.67
2019-03-19T12:26:08.747Z,3.37
2019-03-19T12:28:40.055Z,13.43
2019-03-19T12:31:10.782Z,9.47
2019-03-19T12:33:42.545Z,7.43
2019-03-19T12:36:13.191Z,10.47
2019-03-19T12:38:43.979Z,4.87
2019-03-19T12:41:14.710Z,4.60
2019-03-19T12:43:45.269Z,5.40
2019-03-19T12:46:15.898Z,6.10
2019-03-19T12:48:46.669Z,4.37
2019-03-19T12:51:17.278Z,7.27
2019-03-19T12:53:48.015Z,6.23
2019-03-19T12:56:18.872Z,11.47
2019-03-19T12:58:49.380Z,9.20
2019-03-19T13:01:20.098Z,7.60
2019-03-19T13:03:50.806Z,8.57
2019-03-19T13:06:21.430Z,9.93
2019-03-19T13:08:52.019Z,8.30
2019-03-19T13:11:22.636Z,4.47
2019-03-19T13:13:53.226Z,9.00
2019-03-19T13:16:23.895Z,6.17
2019-03-19T13:18:54.533Z,4.47
2019-03-19T13:21:26.069Z,6.33
2019-03-19T13:23:56.773Z,4.70
2019-03-19T13:26:27.461Z,3.57
2019-03-19T13:28:58.045Z,6.87
2019-03-19T13:31:28.623Z,4.90
2019-03-19T13:33:59.298Z,8.27
2019-03-19T13:36:29.920Z,4.37
2019-03-19T13:39:00.932Z,8.80
2019-03-19T13:41:33.172Z,7.63
2019-03-19T13:44:03.769Z,5.70
2019-03-19T13:46:34.271Z,5.03
2019-03-19T13:49:04.810Z,3.43
2019-03-19T13:51:35.473Z,12.37
2019-03-19T13:54:06.705Z,4.07
2019-03-19T13:56:37.447Z,7.30
2019-03-19T13:59:08.098Z,3.77
2019-03-19T14:01:38.894Z,10.40
2019-03-19T14:04:09.639Z,10.53
2019-03-19T14:06:58.435Z,6.43
2019-03-19T14:09:29.129Z,10.20
2019-03-19T14:11:59.827Z,5.83
2019-03-19T14:14:30.524Z,8.90
2019-03-19T14:17:01.570Z,4.83
2019-03-19T14:19:32.200Z,6.60
2019-03-19T14:22:02.768Z,11.93
2019-03-19T14:24:33.496Z,9.80
2019-03-19T14:27:04.019Z,2.77
2019-03-19T14:29:34.695Z,5.30
2019-03-19T14:32:05.602Z,7.57
2019-03-19T14:34:36.511Z,10.30
2019-03-19T14:37:07.194Z,7.83
2019-03-19T14:39:37.868Z,1.93
2019-03-19T14:42:08.480Z,1.90
2019-03-19T14:44:39.101Z,4.60
2019-03-19T14:47:09.671Z,7.27
2019-03-19T14:49:46.983Z,6.40
2019-03-19T14:52:12.836Z,4.73
2019-03-19T14:54:43.974Z,7.73
2019-03-19T14:57:14.930Z,7.00
2019-03-19T14:59:45.629Z,2.60
2019-03-19T15:02:16.514Z,6.97
2019-03-19T15:04:47.506Z,5.80
2019-03-19T15:07:18.361Z,10.60
2019-03-19T15:09:49.000Z,7.73
2019-03-19T15:12:19.687Z,2.33
2019-03-19T15:14:50.331Z,4.60
2019-03-19T15:17:21.055Z,9.23
2019-03-19T15:19:51.746Z,10.63
2019-03-19T15:22:32.165Z,11.17
2019-03-19T15:24:55.430Z,4.13
2019-03-19T15:27:26.185Z,3.53
2019-03-19T15:29:56.960Z,7.33
2019-03-19T15:32:28.446Z,4.13
2019-03-19T15:34:59.026Z,8.93
2019-03-19T15:37:29.742Z,5.13
2019-03-19T15:40:01.043Z,6.17
2019-03-19T15:42:31.719Z,3.67
2019-03-19T15:45:02.482Z,9.57
2019-03-19T15:47:34.270Z,10.33
2019-03-19T15:50:06.229Z,6.37
2019-03-19T15:52:37.175Z,1.47
2019-03-19T15:55:07.790Z,9.77
2019-03-19T15:57:38.706Z,9.07
2019-03-19T16:00:12.021Z,5.47
2019-03-19T16:02:44.996Z,4.57
2019-03-19T16:05:15.535Z,8.27
2019-03-19T16:07:46.283Z,15.20
2019-03-19T16:10:16.920Z,21.47
2019-03-19T16:12:47.520Z,7.03
2019-03-19T16:15:18.877Z,3.30
2019-03-19T16:17:49.772Z,10.53
2019-03-19T16:20:23.476Z,2.93
2019-03-19T16:22:54.265Z,4.80
2019-03-19T16:25:25.485Z,7.03
2019-03-19T16:27:56.329Z,4.27
2019-03-19T16:30:27.085Z,5.93
2019-03-19T16:32:57.691Z,10.27
2019-03-19T16:35:28.758Z,3.43
2019-03-19T16:37:59.865Z,10.83
2019-03-19T16:40:30.595Z,4.87
2019-03-19T16:43:01.363Z,2.93
2019-03-19T16:45:32.177Z,3.67
2019-03-19T16:48:02.892Z,10.43
2019-03-19T16:50:33.821Z,5.13
2019-03-19T16:53:04.709Z,6.27
2019-03-19T16:55:35.468Z,8.13
2019-03-19T16:58:06.014Z,3.63
2019-03-19T17:00:36.605Z,4.87
2019-03-19T17:03:07.315Z,8.23
2019-03-19T17:05:38.360Z,3.47
2019-03-19T17:08:09.050Z,5.13
2019-03-19T17:10:39.726Z,5.33
2019-03-19T17:13:10.819Z,12.17
2019-03-19T17:15:41.482Z,8.47
2019-03-19T17:18:12.240Z,3.87
2019-03-19T17:20:42.779Z,10.30
2019-03-19T17:23:13.470Z,9.63
2019-03-19T17:25:44.061Z,12.63
2019-03-19T17:28:22.050Z,6.30
2019-03-19T17:30:47.053Z,7.17
2019-03-19T17:33:17.795Z,9.87
2019-03-19T17:35:48.350Z,18.00
2019-03-19T17:38:19.000Z,7.33
2019-03-19T17:40:49.618Z,9.53
2019-03-19T17:43:20.283Z,11.60
2019-03-19T17:45:50.831Z,6.87
2019-03-19T17:48:21.419Z,9.23
2019-03-19T17:50:52.939Z,11.67
2019-03-19T17:53:23.724Z,11.97
2019-03-19T17:55:54.313Z,11.80
2019-03-19T17:58:24.987Z,11.43
2019-03-19T18:00:55.773Z,7.87
2019-03-19T18:03:26.755Z,15.53
2019-03-19T18:05:57.484Z,25.93
2019-03-19T18:08:28.135Z,11.10
2019-03-19T18:10:58.899Z,15.13
2019-03-19T18:13:29.537Z,8.33
2019-03-19T18:16:00.201Z,7.90
2019-03-19T18:18:30.922Z,8.23
2019-03-19T18:21:02.530Z,6.53
2019-03-19T18:23:33.439Z,7.27
2019-03-19T18:26:05.074Z,15.60
2019-03-19T18:28:36.043Z,4.17
2019-03-19T18:31:06.655Z,9.40
2019-03-19T18:33:37.262Z,22.83
2019-03-19T18:36:07.892Z,12.40
2019-03-19T18:38:38.645Z,10.83
2019-03-19T18:41:09.778Z,12.80
2019-03-19T18:43:40.421Z,10.93
2019-03-19T18:46:11.365Z,12.73
2019-03-19T18:48:42.076Z,13.03
2019-03-19T18:51:12.713Z,9.23
2019-03-19T18:53:43.387Z,9.33
2019-03-19T18:56:13.892Z,10.37
2019-03-19T18:58:44.947Z,8.53
2019-03-19T19:01:15.882Z,6.97
2019-03-19T19:03:46.590Z,13.87
2019-03-19T19:06:17.251Z,5.07
2019-03-19T19:08:47.943Z,8.03
2019-03-19T19:11:18.640Z,29.77
2019-03-19T19:13:49.207Z,32.13
2019-03-19T19:16:19.783Z,32.37
2019-03-19T19:18:50.321Z,14.50
2019-03-19T19:21:21.862Z,17.83
2019-03-19T19:23:52.544Z,18.30
2019-03-19T19:26:23.195Z,11.50
2019-03-19T19:28:56.722Z,13.70
2019-03-19T19:31:27.426Z,30.50
2019-03-19T19:33:58.265Z,29.27
2019-03-19T19:36:29.093Z,31.57
2019-03-19T19:38:59.683Z,28.90
2019-03-19T19:41:30.532Z,31.70
2019-03-19T19:44:02.285Z,20.53
2019-03-19T19:46:33.014Z,17.97
2019-03-19T19:49:03.856Z,18.17
2019-03-19T19:51:34.496Z,23.83
2019-03-19T19:54:05.129Z,28.07
2019-03-19T19:56:36.811Z,29.97
2019-03-19T19:59:07.576Z,21.90
2019-03-19T20:01:38.397Z,17.30
2019-03-19T20:04:10.517Z,16.03
2019-03-19T20:06:42.208Z,20.57
2019-03-19T20:09:14.117Z,27.27
2019-03-19T20:11:46.570Z,22.10
2019-03-19T20:14:18.516Z,17.73
2019-03-19T20:16:50.969Z,18.30
2019-03-19T20:19:21.939Z,20.20
2019-03-19T20:21:53.448Z,18.33
2019-03-19T20:24:24.939Z,13.20
2019-03-19T20:26:56.360Z,26.80
2019-03-19T20:29:27.680Z,14.80
2019-03-19T20:32:00.684Z,17.63
2019-03-19T20:34:32.077Z,18.50
2019-03-19T20:37:03.225Z,19.90
2019-03-19T20:39:34.222Z,29.13
2019-03-19T20:42:05.962Z,22.60
2019-03-19T20:44:37.002Z,18.03
2019-03-19T20:49:27.750Z,18.43
2019-03-19T20:51:58.502Z,19.60
2019-03-19T20:54:29.682Z,14.60
2019-03-19T20:57:00.416Z,20.20
2019-03-19T20:59:31.520Z,23.03
2019-03-19T21:02:02.818Z,16.40
2019-03-19T21:04:36.611Z,13.70
2019-03-19T21:07:07.296Z,16.87
2019-03-19T21:09:37.935Z,16.27
2019-03-19T21:12:08.726Z,15.83
2019-03-19T21:14:39.473Z,15.27
2019-03-19T21:17:10.567Z,19.50
2019-03-19T21:19:41.375Z,15.13
2019-03-19T21:22:12.101Z,12.00
2019-03-19T21:24:42.897Z,9.53
2019-03-19T21:27:14.773Z,18.13
2019-03-19T21:29:45.492Z,15.53
2019-03-19T21:32:16.787Z,14.33
2019-03-19T21:34:47.770Z,24.40
2019-03-19T21:37:18.514Z,24.70
2019-03-19T21:39:49.211Z,20.83
2019-03-19T21:42:19.913Z,21.43
2019-03-19T21:44:50.604Z,12.67
2019-03-19T21:47:21.415Z,29.67
2019-03-19T21:49:52.146Z,12.87
2019-03-19T21:52:23.224Z,19.73
2019-03-19T21:54:54.020Z,18.97
2019-03-19T21:57:24.691Z,17.20
2019-03-19T21:59:55.383Z,28.90
2019-03-19T22:02:25.955Z,14.10
2019-03-19T22:04:56.654Z,23.90
2019-03-19T22:07:27.423Z,13.37
2019-03-19T22:09:59.152Z,15.50
2019-03-19T22:12:29.943Z,15.83
2019-03-19T22:15:00.496Z,18.87
2019-03-19T22:17:31.344Z,17.53
2019-03-19T22:20:02.031Z,14.97
2019-03-19T22:22:33.090Z,19.13
2019-03-19T22:25:03.745Z,19.43
2019-03-19T22:27:34.375Z,12.73
2019-03-19T22:30:06.327Z,13.20
2019-03-19T22:32:36.998Z,16.03
2019-03-19T22:35:08.717Z,20.07
2019-03-19T22:37:39.570Z,24.03
2019-03-19T22:40:11.702Z,16.07
2019-03-19T22:42:42.292Z,11.47
2019-03-19T22:45:13.936Z,20.97
2019-03-19T22:47:44.655Z,16.33
2019-03-19T22:50:15.413Z,25.23
2019-03-19T22:52:46.202Z,10.07
2019-03-19T22:55:28.218Z,12.00
2019-03-19T22:57:52.854Z,12.13
2019-03-19T23:00:41.499Z,14.13
2019-03-19T23:03:12.730Z,9.00
2019-03-19T23:05:43.495Z,19.00
2019-03-19T23:08:14.165Z,13.47
2019-03-19T23:10:44.690Z,14.30
2019-03-19T23:13:15.484Z,11.90
2019-03-19T23:15:46.099Z,10.43
2019-03-19T23:18:17.285Z,10.93
2019-03-19T23:20:49.304Z,12.23
2019-03-19T23:23:19.849Z,12.47
2019-03-19T23:25:50.503Z,11.20
2019-03-19T23:28:21.257Z,13.17
2019-03-19T23:30:52.087Z,10.60
2019-03-19T23:33:22.801Z,10.20
2019-03-19T23:35:53.492Z,9.47
2019-03-19T23:38:24.044Z,13.37
2019-03-19T23:40:54.597Z,9.73
2019-03-19T23:43:25.182Z,16.33
2019-03-19T23:45:55.812Z,8.50
2019-03-19T23:48:26.523Z,22.43
2019-03-19T23:50:57.294Z,16.43
2019-03-19T23:53:27.982Z,7.43
2019-03-19T23:55:58.641Z,8.77
2019-03-19T23:58:29.204Z,22.63
